createdAt,value
2022-12-13T00:01:48.000Z,4.88
2022-12-13T00:04:16.262Z,5.05
2022-12-13T00:06:43.922Z,5.18
2022-12-13T00:09:14.013Z,6.00
2022-12-13T00:11:41.681Z,5.75
2022-12-13T00:14:14.266Z,4.70
2022-12-13T00:16:45.754Z,4.85
2022-12-13T00:19:13.670Z,4.22
2022-12-13T00:21:41.663Z,4.90
2022-12-13T00:24:09.644Z,4.75
2022-12-13T00:26:37.282Z,5.35
2022-12-13T00:29:07.271Z,5.63
2022-12-13T00:34:23.728Z,5.00
2022-12-13T00:36:51.382Z,5.15
2022-12-13T00:39:19.401Z,5.20
2022-12-13T00:41:47.582Z,4.75
2022-12-13T00:44:15.529Z,5.75
2022-12-13T00:46:43.800Z,4.75
2022-12-13T00:49:12.478Z,5.18
2022-12-13T00:51:40.306Z,4.85
2022-12-13T00:54:07.882Z,5.05
2022-12-13T00:56:37.166Z,5.75
2022-12-13T00:59:04.722Z,7.70
2022-12-13T01:01:34.212Z,7.97
2022-12-13T01:04:03.767Z,5.88
2022-12-13T01:06:37.093Z,6.30
2022-12-13T01:09:06.970Z,6.32
2022-12-13T01:11:34.592Z,5.32
2022-12-13T01:14:02.188Z,5.70
2022-12-13T01:16:29.802Z,6.70
2022-12-13T01:19:01.373Z,6.75
2022-12-13T01:21:29.698Z,6.82
2022-12-13T01:24:03.498Z,6.43
2022-12-13T01:26:42.620Z,8.00
2022-12-13T01:29:11.719Z,7.55
2022-12-13T01:31:42.003Z,6.93
2022-12-13T01:34:12.081Z,6.00
2022-12-13T01:36:41.564Z,7.93
2022-12-13T01:39:15.319Z,8.52
2022-12-13T01:41:45.231Z,6.85
2022-12-13T01:44:43.245Z,9.65
2022-12-13T01:47:11.255Z,7.85
2022-12-13T01:49:38.941Z,7.22
2022-12-13T01:52:10.463Z,8.20
2022-12-13T01:54:46.431Z,8.27
2022-12-13T01:57:18.057Z,9.32
2022-12-13T01:59:47.223Z,8.38
2022-12-13T02:02:15.522Z,8.70
2022-12-13T02:05:08.736Z,9.77
2022-12-13T02:07:38.636Z,9.55
2022-12-13T02:10:09.033Z,10.65
2022-12-13T02:12:37.894Z,8.43
2022-12-13T02:15:11.787Z,7.78
2022-12-13T02:18:08.222Z,8.13
2022-12-13T02:20:56.119Z,7.72
2022-12-13T02:23:54.403Z,8.98
2022-12-13T02:26:47.893Z,8.00
2022-12-13T02:34:41.645Z,8.23
2022-12-13T02:37:20.948Z,8.13
2022-12-13T02:39:54.403Z,6.15
2022-12-13T02:42:28.003Z,8.20
2022-12-13T02:45:06.186Z,7.13
2022-12-13T02:47:35.329Z,7.28
2022-12-13T02:50:06.683Z,6.35
2022-12-13T02:52:34.800Z,7.15
2022-12-13T02:55:08.114Z,6.25
2022-12-13T02:57:38.980Z,6.60
2022-12-13T03:00:14.362Z,6.20
2022-12-13T03:03:12.531Z,6.70
2022-12-13T03:06:21.144Z,6.43
2022-12-13T03:09:10.972Z,7.22
2022-12-13T03:12:24.658Z,5.57
2022-12-13T03:15:12.788Z,5.72
2022-12-13T03:17:47.759Z,6.45
2022-12-13T03:20:23.135Z,5.60
2022-12-13T03:22:52.379Z,6.28
2022-12-13T03:25:31.639Z,5.00
2022-12-13T03:28:02.426Z,5.40
2022-12-13T03:30:33.143Z,6.35
2022-12-13T03:33:27.362Z,4.75
2022-12-13T03:35:54.713Z,6.10
2022-12-13T03:38:23.465Z,5.18
2022-12-13T03:40:54.028Z,4.78
2022-12-13T03:43:22.922Z,5.63
2022-12-13T03:45:53.310Z,4.93
2022-12-13T03:48:23.253Z,5.03
2022-12-13T03:50:52.714Z,5.40
2022-12-13T03:53:23.155Z,5.70
2022-12-13T03:56:03.586Z,5.15
2022-12-13T03:58:36.473Z,5.97
2022-12-13T04:01:09.990Z,5.93
2022-12-13T04:03:38.509Z,6.25
2022-12-13T04:06:06.781Z,6.63
2022-12-13T04:08:35.650Z,6.25
2022-12-13T04:11:19.035Z,7.97
2022-12-13T04:13:46.508Z,6.53
2022-12-13T04:16:14.027Z,6.50
2022-12-13T04:18:41.596Z,5.68
2022-12-13T04:21:09.031Z,7.90
2022-12-13T04:23:36.613Z,7.35
2022-12-13T04:26:04.086Z,6.38
2022-12-13T04:28:31.606Z,7.45
2022-12-13T04:30:59.096Z,7.15
2022-12-13T04:33:29.365Z,8.93
2022-12-13T04:35:56.836Z,6.75
2022-12-13T04:38:24.410Z,6.32
2022-12-13T04:40:51.809Z,7.10
2022-12-13T04:43:19.232Z,6.90
2022-12-13T04:45:46.811Z,7.55
2022-12-13T04:48:31.394Z,6.07
2022-12-13T04:51:01.351Z,7.57
2022-12-13T04:53:30.311Z,5.85
2022-12-13T04:55:58.460Z,5.95
2022-12-13T04:58:25.998Z,6.38
2022-12-13T05:00:53.443Z,7.50
2022-12-13T05:03:22.128Z,6.43
2022-12-13T05:05:49.554Z,6.97
2022-12-13T05:08:17.003Z,7.55
2022-12-13T05:10:44.572Z,8.20
2022-12-13T05:13:12.208Z,7.85
2022-12-13T05:15:39.781Z,8.35
2022-12-13T05:18:10.301Z,6.30
2022-12-13T05:20:40.433Z,6.85
2022-12-13T05:23:07.887Z,7.22
2022-12-13T05:25:37.436Z,9.15
2022-12-13T05:28:08.850Z,7.55
2022-12-13T05:30:54.167Z,10.15
2022-12-13T05:33:21.979Z,7.55
2022-12-13T05:35:49.872Z,8.52
2022-12-13T05:38:17.766Z,8.10
2022-12-13T05:40:45.683Z,10.23
2022-12-13T05:43:22.134Z,9.30
2022-12-13T05:45:51.074Z,9.60
2022-12-13T05:48:24.772Z,10.05
2022-12-13T05:51:10.573Z,8.57
2022-12-13T05:53:40.839Z,7.60
2022-12-13T05:56:10.003Z,8.32
2022-12-13T05:58:38.827Z,10.90
2022-12-13T06:01:09.952Z,8.70
2022-12-13T06:03:38.018Z,8.48
2022-12-13T06:06:07.505Z,8.07
2022-12-13T06:08:50.727Z,9.90
2022-12-13T06:11:31.031Z,9.73
2022-12-13T06:14:00.744Z,8.52
2022-12-13T06:16:29.360Z,8.27
2022-12-13T06:19:03.911Z,9.90
2022-12-13T06:21:41.228Z,7.57
2022-12-13T06:24:28.766Z,8.38
2022-12-13T06:26:56.253Z,8.50
2022-12-13T06:29:25.745Z,7.63
2022-12-13T06:32:01.750Z,11.48
2022-12-13T06:34:33.543Z,7.40
2022-12-13T06:37:03.015Z,8.93
2022-12-13T06:39:32.356Z,9.93
2022-12-13T06:42:01.997Z,11.73
2022-12-13T06:44:29.739Z,9.27
2022-12-13T06:47:10.639Z,8.30
2022-12-13T06:49:42.052Z,9.85
2022-12-13T06:52:12.985Z,9.18
2022-12-13T06:54:41.872Z,8.45
2022-12-13T06:57:10.320Z,9.18
2022-12-13T06:59:37.902Z,10.63
2022-12-13T07:02:05.675Z,9.50
2022-12-13T07:04:35.994Z,12.05
2022-12-13T07:07:03.495Z,12.02
2022-12-13T07:09:32.133Z,10.25
2022-12-13T07:12:00.133Z,9.77
2022-12-13T07:14:27.743Z,10.13
2022-12-13T07:17:03.120Z,10.95
2022-12-13T07:19:35.265Z,10.18
2022-12-13T07:22:06.305Z,12.63
2022-12-13T07:24:35.716Z,11.07
2022-12-13T07:27:04.297Z,10.57
2022-12-13T07:29:32.060Z,9.93
2022-12-13T07:32:01.701Z,10.90
2022-12-13T07:34:30.771Z,11.25
2022-12-13T07:36:58.476Z,12.18
2022-12-13T07:39:26.878Z,13.35
2022-12-13T07:41:56.301Z,9.77
2022-12-13T07:44:25.211Z,11.90
2022-12-13T07:46:53.266Z,10.80
2022-12-13T07:49:21.024Z,9.68
2022-12-13T07:51:49.280Z,10.65
2022-12-13T07:54:17.365Z,12.00
2022-12-13T07:56:48.519Z,11.15
2022-12-13T07:59:28.460Z,10.18
2022-12-13T08:01:56.775Z,11.02
2022-12-13T08:04:27.228Z,9.68
2022-12-13T08:06:57.792Z,10.25
2022-12-13T08:09:30.945Z,7.57
2022-12-13T08:12:01.584Z,8.57
2022-12-13T08:14:32.607Z,10.32
2022-12-13T08:17:01.148Z,9.15
2022-12-13T08:19:32.019Z,8.68
2022-12-13T08:22:04.246Z,9.70
2022-12-13T08:24:36.213Z,9.85
2022-12-13T08:27:06.288Z,9.23
2022-12-13T08:29:37.041Z,9.50
2022-12-13T08:32:11.978Z,11.00
2022-12-13T08:34:43.855Z,10.55
2022-12-13T08:37:14.109Z,9.63
2022-12-13T08:39:41.842Z,7.60
2022-12-13T08:42:18.150Z,8.40
2022-12-13T08:44:52.400Z,7.70
2022-12-13T08:49:54.510Z,10.48
2022-12-13T08:52:23.978Z,6.95
2022-12-13T08:54:52.014Z,7.78
2022-12-13T08:57:19.520Z,7.50
2022-12-13T08:59:46.892Z,6.95
2022-12-13T09:02:15.274Z,8.13
2022-12-13T09:04:43.713Z,6.88
2022-12-13T09:07:11.286Z,6.15
2022-12-13T09:09:38.701Z,7.22
2022-12-13T09:12:10.667Z,7.05
2022-12-13T09:15:01.297Z,9.30
2022-12-13T09:17:36.958Z,4.72
2022-12-13T09:20:10.203Z,4.88
2022-12-13T09:23:01.366Z,3.78
2022-12-13T09:25:37.528Z,2.58
2022-12-13T09:28:07.697Z,2.22
2022-12-13T09:30:36.538Z,2.20
2022-12-13T09:33:29.645Z,1.98
2022-12-13T09:35:53.181Z,2.17
2022-12-13T09:38:21.165Z,3.00
2022-12-13T09:40:58.767Z,3.50
2022-12-13T09:43:33.564Z,2.88
2022-12-13T09:46:23.146Z,3.90
2022-12-13T09:49:01.312Z,4.53
2022-12-13T09:51:43.540Z,3.22
2022-12-13T09:54:19.406Z,2.72
2022-12-13T09:56:51.308Z,5.53
2022-12-13T09:59:24.199Z,3.43
2022-12-13T10:01:51.771Z,3.22
2022-12-13T10:04:19.363Z,3.58
2022-12-13T10:06:46.893Z,3.78
2022-12-13T10:09:14.745Z,2.72
2022-12-13T10:11:53.389Z,3.13
2022-12-13T10:14:30.160Z,3.30
2022-12-13T10:17:02.026Z,4.85
2022-12-13T10:19:41.481Z,4.13
2022-12-13T10:22:13.758Z,4.93
2022-12-13T10:24:53.297Z,3.83
2022-12-13T10:27:37.663Z,3.28
2022-12-13T10:30:28.073Z,3.22
2022-12-13T10:33:00.049Z,3.28
2022-12-13T10:35:39.326Z,3.63
2022-12-13T10:38:31.863Z,3.35
2022-12-13T10:43:31.151Z,2.42
2022-12-13T10:46:02.258Z,2.22
2022-12-13T10:48:55.223Z,3.60
2022-12-13T10:51:26.381Z,3.25
2022-12-13T10:54:03.714Z,3.08
2022-12-13T10:56:40.822Z,5.13
2022-12-13T10:59:26.315Z,4.63
2022-12-13T11:01:55.305Z,3.70
2022-12-13T11:04:29.912Z,4.85
2022-12-13T11:06:59.453Z,4.90
2022-12-13T11:09:39.150Z,6.22
2022-12-13T11:12:16.716Z,6.25
2022-12-13T11:15:00.860Z,5.07
2022-12-13T11:17:32.054Z,4.72
2022-12-13T11:20:15.824Z,5.60
2022-12-13T11:22:44.072Z,6.32
2022-12-13T11:25:30.263Z,5.90
2022-12-13T11:28:27.765Z,8.32
2022-12-13T11:31:16.214Z,6.05
2022-12-13T11:34:00.119Z,7.20
2022-12-13T11:36:41.106Z,8.15
2022-12-13T11:39:32.431Z,7.03
2022-12-13T11:42:31.063Z,7.97
2022-12-13T11:45:22.170Z,6.95
2022-12-13T11:48:19.969Z,7.55
2022-12-13T11:50:51.212Z,11.05
2022-12-13T11:53:31.437Z,10.90
2022-12-13T11:56:29.484Z,14.00
2022-12-13T11:59:16.056Z,10.82
2022-12-13T12:02:04.885Z,12.13
2022-12-13T12:04:45.070Z,12.70
2022-12-13T12:07:32.215Z,12.13
2022-12-13T12:10:27.320Z,14.50
2022-12-13T12:13:06.297Z,13.13
2022-12-13T12:15:42.249Z,17.33
2022-12-13T12:18:16.058Z,11.30
2022-12-13T12:21:07.303Z,11.98
2022-12-13T12:23:55.716Z,9.82
2022-12-13T12:26:30.375Z,9.38
2022-12-13T12:29:24.486Z,9.32
2022-12-13T12:32:06.885Z,9.13
2022-12-13T12:34:55.912Z,10.63
2022-12-13T12:37:35.593Z,10.60
2022-12-13T12:41:07.292Z,9.20
2022-12-13T12:43:32.770Z,9.02
2022-12-13T12:46:27.646Z,9.15
2022-12-13T12:49:18.210Z,10.15
2022-12-13T12:52:04.803Z,11.63
2022-12-13T12:55:03.475Z,9.98
2022-12-13T12:57:56.297Z,12.43
2022-12-13T13:00:59.758Z,11.32
2022-12-13T13:03:31.561Z,9.70
2022-12-13T13:06:16.494Z,9.55
2022-12-13T13:08:59.461Z,9.88
2022-12-13T13:11:31.216Z,9.05
2022-12-13T13:14:21.719Z,10.82
2022-12-13T13:16:49.310Z,9.40
2022-12-13T13:19:41.620Z,10.40
2022-12-13T13:22:31.895Z,9.52
2022-12-13T13:25:20.483Z,11.05
2022-12-13T13:27:51.252Z,11.35
2022-12-13T13:30:24.199Z,9.82
2022-12-13T13:32:53.919Z,10.52
2022-12-13T13:35:56.559Z,11.82
2022-12-13T13:39:01.330Z,11.65
2022-12-13T13:41:59.586Z,10.70
2022-12-13T13:44:54.964Z,11.77
2022-12-13T13:47:36.925Z,12.40
2022-12-13T13:50:28.066Z,14.57
2022-12-13T13:53:26.596Z,11.63
2022-12-13T13:56:29.622Z,10.88
2022-12-13T13:59:23.202Z,11.10
2022-12-13T14:02:10.508Z,10.45
2022-12-13T14:05:11.364Z,10.38
2022-12-13T14:07:55.122Z,11.20
2022-12-13T14:10:49.543Z,11.15
2022-12-13T14:13:56.803Z,11.70
2022-12-13T14:16:59.361Z,11.40
2022-12-13T14:19:56.084Z,11.30
2022-12-13T14:22:41.072Z,12.38
2022-12-13T14:25:40.199Z,10.63
2022-12-13T14:28:46.703Z,14.75
2022-12-13T14:31:22.955Z,11.55
2022-12-13T14:33:58.644Z,12.45
2022-12-13T14:36:37.165Z,10.68
2022-12-13T14:39:25.427Z,10.80
2022-12-13T14:41:58.114Z,10.55
2022-12-13T14:44:31.584Z,11.57
2022-12-13T14:47:10.522Z,11.38
2022-12-13T14:49:49.024Z,11.18
2022-12-13T14:52:37.486Z,11.20
2022-12-13T14:55:10.391Z,12.57
2022-12-13T14:57:44.196Z,11.52
2022-12-13T15:00:33.097Z,13.38
2022-12-13T15:03:03.608Z,12.43
2022-12-13T15:05:42.234Z,11.80
2022-12-13T15:08:19.237Z,13.00
2022-12-13T15:10:49.673Z,12.48
2022-12-13T15:13:35.633Z,12.13
2022-12-13T15:16:11.181Z,14.45
2022-12-13T15:18:38.992Z,11.18
2022-12-13T15:21:25.678Z,11.32
2022-12-13T15:23:54.132Z,13.75
2022-12-13T15:26:29.549Z,11.85
2022-12-13T15:29:01.854Z,10.80
2022-12-13T15:31:39.056Z,13.77
2022-12-13T15:34:28.639Z,11.65
2022-12-13T15:37:01.049Z,11.38
2022-12-13T15:39:31.457Z,12.25
2022-12-13T15:42:00.108Z,13.45
2022-12-13T15:44:32.718Z,12.70
2022-12-13T15:47:09.578Z,10.95
2022-12-13T15:49:41.368Z,12.38
2022-12-13T15:52:30.858Z,12.10
2022-12-13T15:55:19.398Z,13.57
2022-12-13T15:57:53.144Z,12.32
2022-12-13T16:00:32.524Z,12.48
2022-12-13T16:03:18.569Z,12.88
2022-12-13T16:05:52.588Z,12.25
2022-12-13T16:08:38.375Z,12.60
2022-12-13T16:11:07.950Z,14.27
2022-12-13T16:13:37.536Z,14.48
2022-12-13T16:16:28.199Z,12.77
2022-12-13T16:19:14.076Z,14.90
2022-12-13T16:21:45.349Z,11.73
2022-12-13T16:24:12.670Z,14.10
2022-12-13T16:26:45.470Z,11.80
2022-12-13T16:29:17.689Z,11.68
2022-12-13T16:31:45.599Z,14.18
2022-12-13T16:34:29.970Z,13.35
2022-12-13T16:36:59.812Z,13.32
2022-12-13T16:39:27.216Z,12.18
2022-12-13T16:41:54.925Z,14.35
2022-12-13T16:44:29.372Z,14.68
2022-12-13T16:47:14.999Z,14.60
2022-12-13T16:49:44.361Z,14.27
2022-12-13T16:52:11.804Z,15.32
2022-12-13T16:54:39.175Z,13.75
2022-12-13T16:57:06.714Z,16.33
2022-12-13T16:59:35.873Z,16.65
2022-12-13T17:02:04.396Z,15.77
2022-12-13T17:04:32.029Z,17.67
2022-12-13T17:06:59.602Z,15.13
2022-12-13T17:09:27.563Z,16.98
2022-12-13T17:11:55.450Z,17.70
2022-12-13T17:14:24.636Z,14.52
2022-12-13T17:16:55.091Z,18.98
2022-12-13T17:19:22.987Z,18.05
2022-12-13T17:21:50.921Z,17.63
2022-12-13T17:24:18.641Z,15.10
2022-12-13T17:26:54.831Z,17.05
2022-12-13T17:29:24.865Z,24.88
2022-12-13T17:31:53.364Z,19.77
2022-12-13T17:34:20.834Z,16.42
2022-12-13T17:36:48.383Z,18.05
2022-12-13T17:39:15.764Z,20.65
2022-12-13T17:41:43.195Z,18.67
2022-12-13T17:44:25.523Z,15.98
2022-12-13T17:46:55.669Z,16.60
2022-12-13T17:49:24.183Z,19.60
2022-12-13T17:51:54.671Z,17.95
2022-12-13T17:54:24.319Z,16.40
2022-12-13T17:56:53.061Z,18.75
2022-12-13T17:59:24.262Z,17.60
2022-12-13T18:01:54.408Z,18.85
2022-12-13T18:04:26.621Z,18.60
2022-12-13T18:07:00.746Z,20.80
2022-12-13T18:09:30.694Z,17.33
2022-12-13T18:12:01.595Z,18.77
2022-12-13T18:14:32.642Z,17.38
2022-12-13T18:17:04.137Z,17.83
2022-12-13T18:19:32.260Z,20.65
2022-12-13T18:22:00.158Z,22.52
2022-12-13T18:24:27.849Z,18.65
2022-12-13T18:26:56.038Z,18.83
2022-12-13T18:29:24.153Z,24.58
2022-12-13T18:31:51.709Z,24.23
2022-12-13T18:34:19.700Z,24.85
2022-12-13T18:36:47.603Z,26.80
2022-12-13T18:39:15.161Z,22.20
2022-12-13T18:41:43.032Z,19.10
2022-12-13T18:44:13.783Z,15.55
2022-12-13T18:46:45.879Z,12.35
2022-12-13T18:49:14.509Z,9.73
2022-12-13T18:51:42.439Z,6.20
2022-12-13T18:54:10.409Z,6.65
2022-12-13T18:56:38.481Z,6.45
2022-12-13T18:59:06.295Z,6.72
2022-12-13T19:01:34.447Z,9.07
2022-12-13T19:04:02.641Z,4.70
2022-12-13T19:06:31.052Z,5.32
2022-12-13T19:08:59.812Z,5.65
2022-12-13T19:11:29.991Z,4.57
2022-12-13T19:13:58.775Z,4.25
2022-12-13T19:16:27.085Z,4.93
2022-12-13T19:18:55.353Z,6.00
2022-12-13T19:21:26.155Z,5.75
2022-12-13T19:23:58.089Z,5.03
2022-12-13T19:26:29.752Z,5.20
2022-12-13T19:28:59.398Z,3.95
2022-12-13T19:31:31.741Z,4.78
2022-12-13T19:34:02.682Z,4.28
2022-12-13T19:36:32.961Z,3.25
2022-12-13T19:39:01.372Z,4.47
2022-12-13T19:41:32.831Z,4.70
2022-12-13T19:44:04.806Z,4.70
2022-12-13T19:46:33.736Z,7.20
2022-12-13T19:49:02.625Z,4.78
2022-12-13T19:51:35.842Z,7.38
2022-12-13T19:54:09.325Z,5.47
2022-12-13T19:56:40.252Z,8.13
2022-12-13T19:59:09.272Z,6.00
2022-12-13T20:01:40.636Z,7.40
2022-12-13T20:04:11.199Z,6.07
2022-12-13T20:06:39.513Z,7.13
2022-12-13T20:09:07.607Z,6.60
2022-12-13T20:11:36.604Z,8.02
2022-12-13T20:14:04.838Z,9.32
2022-12-13T20:16:33.077Z,6.88
2022-12-13T20:19:01.921Z,8.23
2022-12-13T20:21:30.558Z,7.07
2022-12-13T20:23:59.286Z,8.57
2022-12-13T20:26:30.218Z,6.78
2022-12-13T20:28:59.287Z,8.75
2022-12-13T20:31:31.164Z,9.02
2022-12-13T20:34:02.941Z,6.33
2022-12-13T20:36:32.147Z,7.55
2022-12-13T20:39:02.849Z,8.75
2022-12-13T20:41:33.461Z,10.43
2022-12-13T20:44:18.535Z,8.20
2022-12-13T20:46:46.402Z,7.25
2022-12-13T20:49:15.029Z,7.90
2022-12-13T20:51:43.677Z,8.55
2022-12-13T20:54:12.107Z,10.32
2022-12-13T20:56:41.156Z,7.57
2022-12-13T20:59:11.338Z,9.23
2022-12-13T21:01:41.910Z,10.18
2022-12-13T21:04:10.971Z,8.13
2022-12-13T21:06:41.894Z,8.77
2022-12-13T21:09:12.651Z,9.27
2022-12-13T21:11:43.263Z,11.45
2022-12-13T21:14:22.022Z,10.05
2022-12-13T21:16:54.705Z,13.27
2022-12-13T21:19:27.058Z,12.02
2022-12-13T21:21:57.116Z,13.85
2022-12-13T21:24:27.604Z,13.50
2022-12-13T21:26:56.688Z,11.77
2022-12-13T21:29:24.626Z,11.00
2022-12-13T21:31:53.466Z,11.50
2022-12-13T21:34:22.398Z,12.02
2022-12-13T21:36:53.121Z,12.55
2022-12-13T21:39:24.854Z,10.00
2022-12-13T21:41:54.060Z,10.98
2022-12-13T21:44:22.866Z,13.10
2022-12-13T21:49:39.001Z,9.80
2022-12-13T21:52:06.424Z,9.77
2022-12-13T21:54:33.877Z,10.65
2022-12-13T21:57:20.188Z,9.82
2022-12-13T21:59:51.801Z,11.68
2022-12-13T22:02:23.716Z,10.70
2022-12-13T22:04:56.763Z,12.27
2022-12-13T22:07:31.461Z,13.77
2022-12-13T22:10:03.985Z,11.23
2022-12-13T22:12:39.778Z,9.45
2022-12-13T22:15:15.941Z,10.48
2022-12-13T22:17:50.351Z,11.15
2022-12-13T22:20:22.905Z,11.52
2022-12-13T22:22:53.137Z,9.07
2022-12-13T22:25:22.642Z,9.02
2022-12-13T22:27:52.625Z,10.23
2022-12-13T22:30:23.437Z,8.48
2022-12-13T22:32:54.081Z,12.80
2022-12-13T22:35:22.170Z,9.48
2022-12-13T22:37:50.185Z,9.65
2022-12-13T22:40:17.654Z,9.98
2022-12-13T22:42:48.364Z,12.35
2022-12-13T22:45:16.395Z,10.65
2022-12-13T22:47:44.155Z,10.88
2022-12-13T22:50:11.794Z,12.27
2022-12-13T22:52:39.157Z,11.95
2022-12-13T22:55:07.051Z,13.23
2022-12-13T22:57:34.518Z,11.70
2022-12-13T23:00:01.915Z,10.55
2022-12-13T23:02:32.444Z,10.85
2022-12-13T23:05:00.249Z,10.73
2022-12-13T23:07:28.119Z,8.35
2022-12-13T23:09:55.421Z,9.23
2022-12-13T23:12:38.485Z,11.40
2022-12-13T23:17:33.424Z,8.10
2022-12-13T23:20:00.787Z,10.13
2022-12-13T23:22:28.732Z,9.40
2022-12-13T23:24:56.376Z,9.13
2022-12-13T23:27:24.864Z,10.07
2022-12-13T23:29:52.799Z,9.48
2022-12-13T23:32:20.628Z,10.00
2022-12-13T23:34:48.281Z,8.82
2022-12-13T23:37:15.701Z,11.10
2022-12-13T23:39:43.397Z,10.15
2022-12-13T23:42:19.151Z,10.05
2022-12-13T23:44:46.538Z,12.40
2022-12-13T23:47:14.376Z,9.70
2022-12-13T23:49:41.662Z,9.25
2022-12-13T23:52:08.996Z,9.57
2022-12-13T23:54:36.376Z,12.38
2022-12-13T23:57:03.953Z,10.35
2022-12-13T23:59:31.285Z,14.48
